Conneaut Harbor, Ohio
Current Conditions -  °F | °C
As of 4:03 PM on Tuesday 21 Oct 2014 (Local Time) from KHZY Reporting Station
Light Rain Light Rain  
Wind Chill: 47°   Ceiling: 1500
Heat Index: 49°   Visibility: 9mi
Dew Point: 45°   Wind: 6mph
Humidity: 86%   Direction: 320°NW
Pressure: 29.95"   Gusts: NA
Location:  41.8949°N, 80.5816°W
Report Text: KHZY 212003Z AUTO 32005KT 9SM -RA OVC015 09/07 A2995 RMK AO2 RAB02 P0000 T00940072
Loading
Personal Weather Stations






























Interactive Weather Map
Tropical Storm Tracking
New forecast layout! Learn more

10-Day Weather Forecast

Advertisements
Track Severe Weather on mobile